Terminal Aerodrome Forecast
Issued by NWS Detroit/Pontiac, MI

Home | Current Version | Previous Version | Text Only | Print | Product List | Glossary On
Versions: 1 2 3 4 5 6 7 8 9 10 11 12 13 14 15 16
259
FTUS43 KDTX 250526
TAFFNT
TAF
KFNT 250526Z 2506/2606 03008KT P6SM -SHRA SCT009 OVC022
     FM250800 04006KT 5SM -RA BR BKN006 OVC012
     FM251100 05007KT 2SM -RA BR OVC003
     FM251800 06011KT 4SM -DZ BR OVC006
     FM260200 08007KT 2SM BR OVC012=

USA.gov is the U.S. government's official web portal to all federal, state and local government web resources and services.